createdAt,value
2017-07-07T00:00:01.530Z,935.69
2017-07-07T00:00:19.683Z,935.7
2017-07-07T00:00:37.884Z,935.71
2017-07-07T00:00:56.545Z,935.67
2017-07-07T00:01:15.244Z,935.67
2017-07-07T00:01:33.394Z,935.68
2017-07-07T00:01:52.584Z,935.67
2017-07-07T00:02:10.750Z,935.68
2017-07-07T00:02:28.921Z,935.67
2017-07-07T00:02:48.140Z,935.75
2017-07-07T00:03:06.825Z,935.7
2017-07-07T00:03:24.469Z,935.72
2017-07-07T00:03:43.170Z,935.73
2017-07-07T00:04:01.829Z,935.71
2017-07-07T00:04:20.507Z,935.72
2017-07-07T00:04:39.154Z,935.75
2017-07-07T00:04:58.364Z,935.7
2017-07-07T00:05:17.056Z,935.77
2017-07-07T00:05:35.746Z,935.72
2017-07-07T00:05:54.936Z,935.72
2017-07-07T00:06:14.135Z,935.73
2017-07-07T00:06:32.282Z,935.73
2017-07-07T00:06:51.467Z,935.71
2017-07-07T00:07:09.627Z,935.7
2017-07-07T00:07:28.828Z,935.68
2017-07-07T00:07:47.086Z,935.71
2017-07-07T00:08:05.783Z,935.71
2017-07-07T00:08:24.474Z,935.72
2017-07-07T00:08:43.668Z,935.71
2017-07-07T00:09:02.978Z,935.7
2017-07-07T00:09:22.176Z,935.7
2017-07-07T00:09:41.360Z,935.68
2017-07-07T00:09:59.498Z,935.73
2017-07-07T00:10:18.684Z,935.73
2017-07-07T00:10:37.881Z,935.73
2017-07-07T00:10:56.558Z,935.7
2017-07-07T00:11:15.296Z,935.69
2017-07-07T00:11:34.012Z,935.7
2017-07-07T00:11:52.694Z,935.71
2017-07-07T00:12:11.402Z,935.69
2017-07-07T00:12:30.585Z,935.72
2017-07-07T00:12:49.241Z,935.71
2017-07-07T00:13:07.400Z,935.71
2017-07-07T00:13:26.076Z,935.71
2017-07-07T00:13:44.254Z,935.71
2017-07-07T00:14:02.938Z,935.69
2017-07-07T00:14:21.611Z,935.71
2017-07-07T00:14:40.782Z,935.74
2017-07-07T00:14:59.971Z,935.71
2017-07-07T00:15:19.169Z,935.71
2017-07-07T00:15:38.366Z,935.7
2017-07-07T00:15:57.564Z,935.75
2017-07-07T00:16:16.228Z,935.69
2017-07-07T00:16:34.902Z,935.73
2017-07-07T00:16:53.063Z,935.73
2017-07-07T00:17:11.259Z,935.75
2017-07-07T00:17:30.458Z,935.75
2017-07-07T00:17:49.660Z,935.78
2017-07-07T00:18:08.324Z,935.77
2017-07-07T00:18:26.494Z,935.79
2017-07-07T00:18:45.178Z,935.8
2017-07-07T00:19:04.378Z,935.79
2017-07-07T00:19:22.549Z,935.77
2017-07-07T00:19:41.235Z,935.78
2017-07-07T00:20:00.518Z,935.8
2017-07-07T00:20:19.799Z,935.77
2017-07-07T00:20:38.636Z,935.73
2017-07-07T00:20:57.854Z,935.76
2017-07-07T00:21:17.075Z,935.81
2017-07-07T00:21:36.316Z,935.8
2017-07-07T00:21:55.586Z,935.8
2017-07-07T00:22:13.985Z,935.77
2017-07-07T00:22:31.713Z,935.81
2017-07-07T00:22:49.422Z,935.77
2017-07-07T00:23:07.584Z,935.8
2017-07-07T00:23:25.240Z,935.8
2017-07-07T00:23:43.400Z,935.83
2017-07-07T00:24:02.068Z,935.79
2017-07-07T00:24:21.279Z,935.83
2017-07-07T00:24:40.498Z,935.76
2017-07-07T00:24:58.705Z,935.78
2017-07-07T00:25:17.910Z,935.75
2017-07-07T00:25:35.578Z,935.79
2017-07-07T00:25:53.231Z,935.75
2017-07-07T00:26:12.471Z,935.77
2017-07-07T00:26:31.678Z,935.75
2017-07-07T00:26:50.418Z,935.76
2017-07-07T00:27:09.105Z,935.77
2017-07-07T00:27:27.275Z,935.76
2017-07-07T00:27:46.467Z,935.75
2017-07-07T00:28:05.677Z,935.75
2017-07-07T00:28:24.338Z,935.73
2017-07-07T00:28:43.522Z,935.72
2017-07-07T00:29:02.730Z,935.74
2017-07-07T00:29:21.403Z,935.72
2017-07-07T00:29:40.618Z,935.72
2017-07-07T00:29:59.277Z,935.73
2017-07-07T00:30:17.421Z,935.73
2017-07-07T00:30:35.594Z,935.77
2017-07-07T00:30:54.812Z,935.78
2017-07-07T00:31:14.216Z,935.76
2017-07-07T00:31:33.416Z,935.75
2017-07-07T00:31:52.649Z,935.78
2017-07-07T00:32:11.348Z,935.8
2017-07-07T00:32:29.490Z,935.78
2017-07-07T00:32:48.183Z,935.75
2017-07-07T00:33:07.356Z,935.79
2017-07-07T00:33:26.035Z,935.77
2017-07-07T00:33:44.755Z,935.79
2017-07-07T00:34:03.441Z,935.77
2017-07-07T00:34:22.136Z,935.79
2017-07-07T00:34:40.811Z,935.77
2017-07-07T00:34:59.564Z,935.76
2017-07-07T00:35:17.739Z,935.77
2017-07-07T00:35:35.903Z,935.72
2017-07-07T00:35:55.089Z,935.77
2017-07-07T00:36:13.735Z,935.71
2017-07-07T00:36:32.421Z,935.73
2017-07-07T00:36:51.111Z,935.77
2017-07-07T00:37:09.779Z,935.76
2017-07-07T00:37:27.155Z,935.75
2017-07-07T00:37:45.296Z,935.74
2017-07-07T00:38:04.505Z,935.72
2017-07-07T00:38:22.902Z,935.74
2017-07-07T00:38:41.053Z,935.72
2017-07-07T00:38:59.742Z,935.76
2017-07-07T00:39:18.945Z,935.75
2017-07-07T00:39:38.193Z,935.73
2017-07-07T00:39:56.347Z,935.74
2017-07-07T00:40:15.025Z,935.74
2017-07-07T00:40:33.192Z,935.72
2017-07-07T00:40:51.860Z,935.74
2017-07-07T00:41:10.026Z,935.76
2017-07-07T00:41:28.693Z,935.71
2017-07-07T00:41:47.068Z,935.67
2017-07-07T00:42:05.205Z,935.75
2017-07-07T00:42:24.498Z,935.72
2017-07-07T00:42:43.766Z,935.7
2017-07-07T00:43:02.483Z,935.72
2017-07-07T00:43:21.150Z,935.7
2017-07-07T00:43:40.381Z,935.72
2017-07-07T00:43:59.065Z,935.75
2017-07-07T00:44:17.232Z,935.72
2017-07-07T00:44:36.435Z,935.71
2017-07-07T00:44:55.140Z,935.74
2017-07-07T00:45:13.836Z,935.7
2017-07-07T00:45:31.987Z,935.72
2017-07-07T00:45:50.675Z,935.76
2017-07-07T00:46:08.903Z,935.73
2017-07-07T00:46:28.078Z,935.73
2017-07-07T00:46:46.750Z,935.76
2017-07-07T00:47:05.425Z,935.78
2017-07-07T00:47:24.106Z,935.76
2017-07-07T00:47:43.289Z,935.77
2017-07-07T00:48:01.961Z,935.77
2017-07-07T00:48:21.144Z,935.79
2017-07-07T00:48:39.882Z,935.74
2017-07-07T00:48:58.569Z,935.75
2017-07-07T00:49:17.250Z,935.8
2017-07-07T00:49:35.948Z,935.76
2017-07-07T00:49:55.160Z,935.75
2017-07-07T00:50:13.827Z,935.79
2017-07-07T00:50:32.494Z,935.77
2017-07-07T00:50:51.701Z,935.75
2017-07-07T00:51:10.394Z,935.74
2017-07-07T00:51:28.545Z,935.77
2017-07-07T00:51:47.229Z,935.71
2017-07-07T00:52:05.388Z,935.75
2017-07-07T00:52:24.603Z,935.78
2017-07-07T00:52:43.312Z,935.77
2017-07-07T00:53:02.498Z,935.77
2017-07-07T00:53:21.191Z,935.77
2017-07-07T00:53:40.359Z,935.76
2017-07-07T00:53:59.032Z,935.76
2017-07-07T00:54:17.187Z,935.76
2017-07-07T00:54:36.389Z,935.77
2017-07-07T00:54:55.063Z,935.73
2017-07-07T00:55:14.241Z,935.71
2017-07-07T00:55:33.447Z,935.74
2017-07-07T00:55:52.118Z,935.74
2017-07-07T00:56:11.308Z,935.72
2017-07-07T00:56:30.509Z,935.73
2017-07-07T00:56:49.708Z,935.71
2017-07-07T00:57:08.893Z,935.73
2017-07-07T00:57:27.576Z,935.68
2017-07-07T00:57:46.774Z,935.75
2017-07-07T00:58:05.957Z,935.69
2017-07-07T00:58:24.622Z,935.72
2017-07-07T00:58:42.765Z,935.72
2017-07-07T00:59:01.442Z,935.7
2017-07-07T00:59:20.647Z,935.74
2017-07-07T00:59:39.104Z,935.76
2017-07-07T00:59:56.728Z,935.76
2017-07-07T01:00:14.902Z,935.74
2017-07-07T01:00:34.107Z,935.76
2017-07-07T01:00:52.283Z,935.75
2017-07-07T01:01:09.919Z,935.75
2017-07-07T01:01:29.109Z,935.74
2017-07-07T01:01:47.778Z,935.73
2017-07-07T01:02:06.971Z,935.75
2017-07-07T01:02:25.660Z,935.76
2017-07-07T01:02:44.343Z,935.69
2017-07-07T01:03:03.044Z,935.76
2017-07-07T01:03:22.239Z,935.77
2017-07-07T01:03:41.427Z,935.76
2017-07-07T01:04:00.080Z,935.7
2017-07-07T01:04:19.280Z,935.71
2017-07-07T01:04:37.974Z,935.71
2017-07-07T01:04:57.147Z,935.66
2017-07-07T01:05:15.822Z,935.69
2017-07-07T01:05:35.021Z,935.73
2017-07-07T01:05:53.186Z,935.67
2017-07-07T01:06:11.366Z,935.72
2017-07-07T01:06:28.485Z,935.73
2017-07-07T01:06:47.150Z,935.71
2017-07-07T01:07:05.836Z,935.73
2017-07-07T01:07:24.064Z,935.74
2017-07-07T01:07:43.238Z,935.78
2017-07-07T01:08:01.915Z,935.75
2017-07-07T01:08:20.571Z,935.77
2017-07-07T01:08:39.265Z,935.76
2017-07-07T01:08:58.457Z,935.82
2017-07-07T01:09:17.636Z,935.79
2017-07-07T01:09:36.315Z,935.77
2017-07-07T01:09:55.020Z,935.75
2017-07-07T01:10:13.712Z,935.77
2017-07-07T01:10:32.903Z,935.76
2017-07-07T01:10:52.073Z,935.73
2017-07-07T01:11:11.280Z,935.73
2017-07-07T01:11:29.977Z,935.72
2017-07-07T01:11:49.174Z,935.7
2017-07-07T01:12:08.351Z,935.8
2017-07-07T01:12:26.586Z,935.76
2017-07-07T01:12:45.348Z,935.79
2017-07-07T01:13:04.033Z,935.77
2017-07-07T01:13:22.735Z,935.78
2017-07-07T01:13:41.393Z,935.83
2017-07-07T01:14:00.586Z,935.81
2017-07-07T01:14:19.799Z,935.79
2017-07-07T01:14:38.485Z,935.83
2017-07-07T01:14:57.163Z,935.84
2017-07-07T01:15:14.301Z,935.86
2017-07-07T01:15:33.183Z,935.86
2017-07-07T01:15:52.389Z,935.83
2017-07-07T01:16:11.590Z,935.83
2017-07-07T01:16:30.282Z,935.81
2017-07-07T01:16:48.452Z,935.85
2017-07-07T01:17:07.639Z,935.85
2017-07-07T01:17:26.369Z,935.86
2017-07-07T01:17:45.531Z,935.83
2017-07-07T01:18:04.197Z,935.83
2017-07-07T01:18:22.869Z,935.86
2017-07-07T01:18:41.045Z,935.87
2017-07-07T01:19:00.238Z,935.88
2017-07-07T01:19:18.904Z,935.87
2017-07-07T01:19:37.571Z,935.87
2017-07-07T01:19:56.790Z,935.88
2017-07-07T01:20:15.470Z,935.83
2017-07-07T01:20:34.673Z,935.89
2017-07-07T01:20:53.335Z,935.89
2017-07-07T01:21:12.013Z,935.89
2017-07-07T01:21:31.187Z,935.88
2017-07-07T01:21:49.884Z,935.86
2017-07-07T01:22:08.045Z,935.87
2017-07-07T01:22:25.702Z,935.88
2017-07-07T01:22:42.333Z,935.86
2017-07-07T01:23:01.500Z,935.84
2017-07-07T01:23:19.156Z,935.84
2017-07-07T01:23:36.290Z,935.85
2017-07-07T01:23:54.468Z,935.87
2017-07-07T01:24:13.134Z,935.86
2017-07-07T01:24:31.799Z,935.83
2017-07-07T01:24:50.461Z,935.83
2017-07-07T01:25:09.118Z,935.84
2017-07-07T01:25:27.809Z,935.85
2017-07-07T01:25:45.978Z,935.83
2017-07-07T01:26:05.182Z,935.82
2017-07-07T01:26:23.324Z,935.83
2017-07-07T01:26:42.499Z,935.82
2017-07-07T01:27:01.704Z,935.83
2017-07-07T01:27:20.892Z,935.86
2017-07-07T01:27:38.544Z,935.79
2017-07-07T01:27:57.208Z,935.84
2017-07-07T01:28:16.415Z,935.83
2017-07-07T01:28:35.167Z,935.83
2017-07-07T01:28:53.306Z,935.85
2017-07-07T01:29:11.985Z,935.85
2017-07-07T01:29:31.197Z,935.84
2017-07-07T01:29:49.889Z,935.8
2017-07-07T01:30:08.565Z,935.86
2017-07-07T01:30:27.793Z,935.85
2017-07-07T01:30:46.997Z,935.85
2017-07-07T01:31:06.193Z,935.88
2017-07-07T01:31:25.402Z,935.87
2017-07-07T01:31:43.572Z,935.82
2017-07-07T01:32:02.777Z,935.86
2017-07-07T01:32:21.949Z,935.88
2017-07-07T01:32:41.159Z,935.84
2017-07-07T01:32:59.835Z,935.86
2017-07-07T01:33:17.988Z,935.85
2017-07-07T01:33:37.207Z,935.86
2017-07-07T01:33:56.458Z,935.88
2017-07-07T01:34:15.151Z,935.89
2017-07-07T01:34:33.849Z,935.87
2017-07-07T01:34:52.531Z,935.87
2017-07-07T01:35:11.724Z,935.84
2017-07-07T01:35:30.454Z,935.82
2017-07-07T01:35:49.129Z,935.85
2017-07-07T01:36:06.779Z,935.85
2017-07-07T01:36:25.978Z,935.82
2017-07-07T01:36:44.672Z,935.86
2017-07-07T01:37:03.863Z,935.89
2017-07-07T01:37:20.974Z,935.85
2017-07-07T01:37:39.623Z,935.86
2017-07-07T01:37:58.301Z,935.91
2017-07-07T01:38:17.489Z,935.89
2017-07-07T01:38:36.698Z,935.86
2017-07-07T01:38:55.418Z,935.84
2017-07-07T01:39:14.614Z,935.88
2017-07-07T01:39:33.801Z,935.85
2017-07-07T01:39:52.460Z,935.84
2017-07-07T01:40:11.137Z,935.84
2017-07-07T01:40:29.827Z,935.86
2017-07-07T01:40:49.012Z,935.84
2017-07-07T01:41:08.211Z,935.83
2017-07-07T01:41:25.341Z,935.83
2017-07-07T01:41:44.517Z,935.82
2017-07-07T01:42:03.703Z,935.8
2017-07-07T01:42:22.875Z,935.79
2017-07-07T01:42:41.027Z,935.81
2017-07-07T01:42:58.685Z,935.79
2017-07-07T01:43:17.891Z,935.78
2017-07-07T01:43:36.579Z,935.8
2017-07-07T01:43:55.770Z,935.8
2017-07-07T01:44:14.971Z,935.78
2017-07-07T01:44:34.157Z,935.82
2017-07-07T01:44:52.825Z,935.81
2017-07-07T01:45:10.976Z,935.82
2017-07-07T01:45:28.631Z,935.82
2017-07-07T01:45:46.805Z,935.8
2017-07-07T01:46:05.495Z,935.81
2017-07-07T01:46:24.675Z,935.83
2017-07-07T01:46:43.873Z,935.85
2017-07-07T01:47:02.557Z,935.85
2017-07-07T01:47:21.742Z,935.86
2017-07-07T01:47:40.413Z,935.87
2017-07-07T01:47:58.560Z,935.85
2017-07-07T01:48:17.241Z,935.83
2017-07-07T01:48:36.445Z,935.83
2017-07-07T01:48:55.147Z,935.81
2017-07-07T01:49:13.838Z,935.88
2017-07-07T01:49:32.010Z,935.88
2017-07-07T01:49:49.655Z,935.86
2017-07-07T01:50:08.337Z,935.83
2017-07-07T01:50:26.512Z,935.79
2017-07-07T01:50:45.196Z,935.82
2017-07-07T01:51:03.361Z,935.78
2017-07-07T01:51:22.037Z,935.82
2017-07-07T01:51:40.729Z,935.85
2017-07-07T01:51:59.420Z,935.85
2017-07-07T01:52:17.075Z,935.86
2017-07-07T01:52:35.764Z,935.88
2017-07-07T01:52:53.425Z,935.88
2017-07-07T01:53:11.574Z,935.91
2017-07-07T01:53:29.246Z,935.86
2017-07-07T01:53:47.403Z,935.84
2017-07-07T01:54:06.593Z,935.9
2017-07-07T01:54:25.266Z,935.87
2017-07-07T01:54:44.528Z,935.87
2017-07-07T01:55:02.178Z,935.84
2017-07-07T01:55:21.373Z,935.91
2017-07-07T01:55:40.160Z,935.86
2017-07-07T01:55:58.328Z,935.8
2017-07-07T01:56:16.505Z,935.81
2017-07-07T01:56:35.682Z,935.85
2017-07-07T01:56:54.342Z,935.82
2017-07-07T01:57:12.514Z,935.86
2017-07-07T01:57:31.196Z,935.82
2017-07-07T01:57:49.874Z,935.84
2017-07-07T01:58:09.057Z,935.83
2017-07-07T01:58:28.269Z,935.88
2017-07-07T01:58:47.474Z,935.87
2017-07-07T01:59:06.177Z,935.87
2017-07-07T01:59:24.863Z,935.86
2017-07-07T01:59:44.085Z,935.86
2017-07-07T02:00:02.788Z,935.88
2017-07-07T02:00:21.461Z,935.89
2017-07-07T02:00:40.673Z,935.91
2017-07-07T02:00:59.319Z,935.91
2017-07-07T02:01:17.490Z,935.9
2017-07-07T02:02:28.272Z,935.9
2017-07-07T02:07:53.557Z,935.84
2017-07-07T02:08:12.782Z,935.85
2017-07-07T02:08:31.497Z,935.85
2017-07-07T02:08:50.227Z,935.85
2017-07-07T02:09:08.971Z,935.86
2017-07-07T02:09:27.166Z,935.9
2017-07-07T02:09:45.915Z,935.84
2017-07-07T02:10:05.184Z,935.85
2017-07-07T02:10:24.455Z,935.85
2017-07-07T02:10:43.720Z,935.84
2017-07-07T02:11:02.989Z,935.88
2017-07-07T02:11:21.684Z,935.87
2017-07-07T02:11:40.900Z,935.88
2017-07-07T02:11:59.604Z,935.86
2017-07-07T02:12:18.846Z,935.87
2017-07-07T02:12:38.275Z,935.86
2017-07-07T02:12:57.504Z,935.87
2017-07-07T02:13:16.221Z,935.88
2017-07-07T02:13:34.950Z,935.86
2017-07-07T02:13:54.156Z,935.89
2017-07-07T02:14:12.830Z,935.89
2017-07-07T02:14:31.514Z,935.87
2017-07-07T02:14:50.196Z,935.88
2017-07-07T02:15:08.362Z,935.85
2017-07-07T02:15:27.563Z,935.86
2017-07-07T02:15:45.730Z,935.84
2017-07-07T02:16:03.892Z,935.86
2017-07-07T02:16:22.065Z,935.81
2017-07-07T02:16:40.720Z,935.82
2017-07-07T02:16:59.406Z,935.82
2017-07-07T02:17:18.607Z,935.84
2017-07-07T02:17:37.290Z,935.81
2017-07-07T02:17:55.954Z,935.83
2017-07-07T02:18:14.614Z,935.78
2017-07-07T02:18:33.794Z,935.84
2017-07-07T02:18:52.992Z,935.85
2017-07-07T02:19:11.751Z,935.81
2017-07-07T02:19:31.053Z,935.82
2017-07-07T02:19:50.344Z,935.84
2017-07-07T02:20:09.639Z,935.82
2017-07-07T02:20:28.400Z,935.82
2017-07-07T02:20:47.152Z,935.85
2017-07-07T02:21:05.400Z,935.87
2017-07-07T02:21:24.664Z,935.84
2017-07-07T02:21:43.965Z,935.83
2017-07-07T02:22:02.207Z,935.8
2017-07-07T02:22:20.942Z,935.78
2017-07-07T02:22:38.689Z,935.85
2017-07-07T02:22:56.921Z,935.82
2017-07-07T02:23:14.120Z,935.78
2017-07-07T02:23:32.363Z,935.84
2017-07-07T02:23:51.111Z,935.83
2017-07-07T02:24:10.391Z,935.8
2017-07-07T02:24:29.172Z,935.8
2017-07-07T02:24:48.472Z,935.82
2017-07-07T02:25:07.858Z,935.81
2017-07-07T02:25:25.586Z,935.82
2017-07-07T02:25:43.810Z,935.79
2017-07-07T02:26:03.083Z,935.81
2017-07-07T02:26:21.850Z,935.83
2017-07-07T02:26:40.666Z,935.77
2017-07-07T02:26:59.966Z,935.77
2017-07-07T02:27:18.212Z,935.81
2017-07-07T02:27:36.467Z,935.81
2017-07-07T02:27:55.220Z,935.79
2017-07-07T02:28:13.481Z,935.81
2017-07-07T02:28:32.253Z,935.8
2017-07-07T02:28:51.543Z,935.79
2017-07-07T02:29:09.783Z,935.79
2017-07-07T02:29:27.513Z,935.82
2017-07-07T02:29:46.826Z,935.82
2017-07-07T02:30:06.108Z,935.8
2017-07-07T02:30:24.859Z,935.76
2017-07-07T02:30:42.585Z,935.8
2017-07-07T02:31:01.353Z,935.78
2017-07-07T02:31:19.584Z,935.77
2017-07-07T02:31:37.298Z,935.73
2017-07-07T02:31:56.129Z,935.78
2017-07-07T02:32:14.384Z,935.75
2017-07-07T02:32:33.153Z,935.81
2017-07-07T02:32:52.493Z,935.8
2017-07-07T02:33:11.278Z,935.78
2017-07-07T02:33:30.372Z,935.8
2017-07-07T02:33:48.716Z,935.81
2017-07-07T02:34:08.008Z,935.79
2017-07-07T02:34:25.248Z,935.78
2017-07-07T02:34:44.026Z,935.78
2017-07-07T02:35:02.253Z,935.78
2017-07-07T02:35:20.045Z,935.83
2017-07-07T02:35:39.828Z,935.81
2017-07-07T02:35:58.049Z,935.82
2017-07-07T02:36:17.353Z,935.84
2017-07-07T02:36:35.603Z,935.8
2017-07-07T02:36:54.425Z,935.81
2017-07-07T02:37:12.417Z,935.84
2017-07-07T02:37:30.122Z,935.78
2017-07-07T02:37:48.868Z,935.8
2017-07-07T02:38:08.225Z,935.81
2017-07-07T02:38:26.492Z,935.8
2017-07-07T02:38:44.731Z,935.8
2017-07-07T02:39:04.042Z,935.86
2017-07-07T02:39:23.360Z,935.84
2017-07-07T02:39:42.651Z,935.83
2017-07-07T02:40:02.074Z,935.82
2017-07-07T02:40:20.412Z,935.85
2017-07-07T02:40:38.734Z,935.83
2017-07-07T02:40:57.479Z,935.86
2017-07-07T02:41:16.232Z,935.82
2017-07-07T02:41:35.513Z,935.85
2017-07-07T02:41:54.785Z,935.85
2017-07-07T02:42:13.023Z,935.79
2017-07-07T02:42:31.831Z,935.83
2017-07-07T02:42:51.104Z,935.81
2017-07-07T02:43:09.864Z,935.84
2017-07-07T02:43:28.105Z,935.82
2017-07-07T02:43:46.885Z,935.81
2017-07-07T02:44:05.130Z,935.82
2017-07-07T02:44:24.430Z,935.86
2017-07-07T02:44:42.157Z,935.83
2017-07-07T02:45:00.395Z,935.82
2017-07-07T02:45:19.663Z,935.81
2017-07-07T02:45:38.942Z,935.82
2017-07-07T02:45:58.247Z,935.83
2017-07-07T02:46:17.083Z,935.82
2017-07-07T02:46:36.370Z,935.83
2017-07-07T02:46:55.125Z,935.83
2017-07-07T02:47:13.888Z,935.81
2017-07-07T02:47:32.650Z,935.8
2017-07-07T02:47:51.411Z,935.82
2017-07-07T02:48:09.139Z,935.84
2017-07-07T02:48:27.998Z,935.82
2017-07-07T02:48:46.771Z,935.8
2017-07-07T02:49:06.080Z,935.79
2017-07-07T02:49:25.415Z,935.82
2017-07-07T02:49:44.729Z,935.82
2017-07-07T02:50:03.509Z,935.75
2017-07-07T02:50:22.284Z,935.79
2017-07-07T02:50:40.052Z,935.76
2017-07-07T02:50:58.865Z,935.76
2017-07-07T02:51:17.116Z,935.82
2017-07-07T02:51:35.866Z,935.78
2017-07-07T02:51:55.177Z,935.8
2017-07-07T02:52:14.461Z,935.8
2017-07-07T02:52:33.223Z,935.77
2017-07-07T02:52:52.027Z,935.8
2017-07-07T02:53:11.319Z,935.77
2017-07-07T02:53:29.574Z,935.79
2017-07-07T02:53:48.347Z,935.8
2017-07-07T02:54:06.609Z,935.77
2017-07-07T02:54:25.956Z,935.81
2017-07-07T02:54:45.241Z,935.82
2017-07-07T02:55:04.555Z,935.79
2017-07-07T02:55:22.785Z,935.8
2017-07-07T02:55:42.084Z,935.8
2017-07-07T02:56:00.847Z,935.8
2017-07-07T02:56:20.172Z,935.8
2017-07-07T02:56:38.939Z,935.78
2017-07-07T02:56:57.716Z,935.82
2017-07-07T02:57:15.956Z,935.82
2017-07-07T02:57:33.184Z,935.81
2017-07-07T02:57:51.924Z,935.81
2017-07-07T02:58:09.647Z,935.77
2017-07-07T02:58:28.942Z,935.82
2017-07-07T02:58:47.701Z,935.79
2017-07-07T02:59:05.937Z,935.82
2017-07-07T02:59:25.250Z,935.81
2017-07-07T02:59:44.019Z,935.81
2017-07-07T03:00:02.778Z,935.8
2017-07-07T03:00:22.046Z,935.81
2017-07-07T03:00:41.312Z,935.82
2017-07-07T03:01:00.076Z,935.77
2017-07-07T03:01:18.864Z,935.78
2017-07-07T03:01:38.142Z,935.76
2017-07-07T03:01:55.914Z,935.76
2017-07-07T03:02:14.675Z,935.77
2017-07-07T03:02:32.918Z,935.78
2017-07-07T03:02:51.662Z,935.73
2017-07-07T03:03:10.399Z,935.76
2017-07-07T03:03:29.527Z,935.75
2017-07-07T03:03:48.451Z,935.77
2017-07-07T03:04:07.190Z,935.75
2017-07-07T03:04:26.533Z,935.77
2017-07-07T03:04:45.790Z,935.75
2017-07-07T03:05:04.553Z,935.72
2017-07-07T03:05:22.793Z,935.75
2017-07-07T03:05:42.114Z,935.73
2017-07-07T03:06:00.899Z,935.76
2017-07-07T03:06:19.691Z,935.75
2017-07-07T03:06:38.977Z,935.75
2017-07-07T03:06:57.768Z,935.72
2017-07-07T03:07:16.535Z,935.73
2017-07-07T03:07:35.811Z,935.73
2017-07-07T03:07:54.613Z,935.76
2017-07-07T03:08:13.454Z,935.74
2017-07-07T03:08:32.174Z,935.73
2017-07-07T03:08:50.424Z,935.75
2017-07-07T03:09:09.689Z,935.78
2017-07-07T03:09:28.969Z,935.75
2017-07-07T03:09:47.780Z,935.77
2017-07-07T03:10:06.515Z,935.76
2017-07-07T03:10:25.266Z,935.79
2017-07-07T03:10:44.556Z,935.76
2017-07-07T03:11:02.791Z,935.76
2017-07-07T03:11:21.566Z,935.78
2017-07-07T03:11:40.843Z,935.79
2017-07-07T03:11:59.623Z,935.79
2017-07-07T03:12:18.367Z,935.82
2017-07-07T03:12:37.658Z,935.78
2017-07-07T03:12:56.493Z,935.81
2017-07-07T03:13:15.793Z,935.81
2017-07-07T03:13:35.091Z,935.81
2017-07-07T03:13:53.339Z,935.83
2017-07-07T03:14:12.662Z,935.84
2017-07-07T03:14:31.454Z,935.81
2017-07-07T03:14:49.703Z,935.82
2017-07-07T03:15:07.946Z,935.8
2017-07-07T03:15:26.890Z,935.82
2017-07-07T03:15:45.693Z,935.79
2017-07-07T03:16:04.451Z,935.81
2017-07-07T03:16:23.252Z,935.81
2017-07-07T03:16:42.021Z,935.78
2017-07-07T03:17:01.300Z,935.8
2017-07-07T03:17:20.575Z,935.8
2017-07-07T03:17:39.887Z,935.82
2017-07-07T03:17:58.658Z,935.82
2017-07-07T03:18:17.967Z,935.83
2017-07-07T03:18:37.248Z,935.81
2017-07-07T03:18:56.092Z,935.81
2017-07-07T03:19:13.837Z,935.8
2017-07-07T03:19:32.085Z,935.81
2017-07-07T03:19:50.915Z,935.79
2017-07-07T03:20:09.718Z,935.78
2017-07-07T03:20:29.010Z,935.83
2017-07-07T03:20:47.808Z,935.79
2017-07-07T03:21:06.051Z,935.77
2017-07-07T03:21:24.858Z,935.81
2017-07-07T03:21:43.627Z,935.84
2017-07-07T03:22:02.390Z,935.76
2017-07-07T03:22:21.662Z,935.78
2017-07-07T03:22:38.846Z,935.77
2017-07-07T03:22:56.046Z,935.79
2017-07-07T03:23:13.750Z,935.78
2017-07-07T03:23:31.470Z,935.77
2017-07-07T03:23:49.695Z,935.75
2017-07-07T03:24:07.937Z,935.8
2017-07-07T03:24:25.138Z,935.78
2017-07-07T03:24:43.903Z,935.84
2017-07-07T03:25:03.201Z,935.85
2017-07-07T03:25:22.496Z,935.8
2017-07-07T03:25:41.249Z,935.81
2017-07-07T03:25:59.511Z,935.84
2017-07-07T03:26:17.766Z,935.81
2017-07-07T03:26:36.526Z,935.8
2017-07-07T03:26:55.831Z,935.81
2017-07-07T03:27:13.551Z,935.8
2017-07-07T03:27:31.790Z,935.81
2017-07-07T03:27:50.533Z,935.84
2017-07-07T03:28:09.790Z,935.78
2017-07-07T03:28:29.093Z,935.81
2017-07-07T03:28:48.406Z,935.8
2017-07-07T03:29:07.169Z,935.82
2017-07-07T03:29:26.450Z,935.84
2017-07-07T03:29:45.244Z,935.81
2017-07-07T03:30:04.029Z,935.82
2017-07-07T03:30:21.801Z,935.85
2017-07-07T03:30:41.112Z,935.83
2017-07-07T03:30:59.370Z,935.82
2017-07-07T03:31:17.611Z,935.82
2017-07-07T03:31:36.897Z,935.8
2017-07-07T03:31:56.202Z,935.82
2017-07-07T03:32:14.962Z,935.82
2017-07-07T03:32:33.724Z,935.77
2017-07-07T03:32:52.509Z,935.81
2017-07-07T03:33:11.271Z,935.79
2017-07-07T03:33:30.014Z,935.79
2017-07-07T03:33:48.778Z,935.8
2017-07-07T03:34:07.024Z,935.81
2017-07-07T03:34:25.254Z,935.77
2017-07-07T03:34:44.070Z,935.76
2017-07-07T03:35:02.841Z,935.82
2017-07-07T03:35:21.607Z,935.76
2017-07-07T03:35:39.869Z,935.74
2017-07-07T03:35:58.638Z,935.76
2017-07-07T03:36:17.637Z,935.77
2017-07-07T03:36:36.034Z,935.74
2017-07-07T03:36:54.790Z,935.75
2017-07-07T03:37:14.103Z,935.73
2017-07-07T03:37:32.864Z,935.78
2017-07-07T03:37:51.630Z,935.77
2017-07-07T03:38:09.875Z,935.74
2017-07-07T03:38:28.624Z,935.75
2017-07-07T03:38:47.936Z,935.75
2017-07-07T03:39:07.231Z,935.77
2017-07-07T03:39:26.541Z,935.75
2017-07-07T03:39:45.305Z,935.75
2017-07-07T03:40:04.611Z,935.74
2017-07-07T03:40:22.955Z,935.76
2017-07-07T03:40:42.244Z,935.73
2017-07-07T03:41:01.022Z,935.77
2017-07-07T03:41:20.351Z,935.73
2017-07-07T03:41:38.580Z,935.71
2017-07-07T03:41:57.858Z,935.75
2017-07-07T03:42:16.641Z,935.73
2017-07-07T03:42:35.915Z,935.74
2017-07-07T03:42:54.700Z,935.76
2017-07-07T03:43:13.474Z,935.74
2017-07-07T03:43:30.698Z,935.71
2017-07-07T03:43:49.497Z,935.7
2017-07-07T03:44:08.295Z,935.74
2017-07-07T03:44:27.051Z,935.73
2017-07-07T03:44:45.828Z,935.71
2017-07-07T03:45:04.101Z,935.71
2017-07-07T03:45:23.397Z,935.72
2017-07-07T03:45:42.177Z,935.66
2017-07-07T03:46:00.946Z,935.68
2017-07-07T03:46:20.241Z,935.63
2017-07-07T03:46:37.975Z,935.64
2017-07-07T03:46:57.274Z,935.66
2017-07-07T03:47:15.515Z,935.66
2017-07-07T03:47:34.820Z,935.65
2017-07-07T03:47:54.130Z,935.62
2017-07-07T03:48:12.896Z,935.62
2017-07-07T03:48:31.659Z,935.64
2017-07-07T03:48:49.883Z,935.63
2017-07-07T03:49:09.181Z,935.65
2017-07-07T03:49:28.461Z,935.62
2017-07-07T03:49:47.238Z,935.6
2017-07-07T03:50:05.497Z,935.6
2017-07-07T03:50:24.808Z,935.63
2017-07-07T03:50:44.100Z,935.61
2017-07-07T03:51:02.892Z,935.6
2017-07-07T03:51:21.675Z,935.58
2017-07-07T03:51:40.977Z,935.56
2017-07-07T03:51:59.739Z,935.61
2017-07-07T03:52:18.497Z,935.57
2017-07-07T03:52:37.798Z,935.6
2017-07-07T03:52:57.067Z,935.57
2017-07-07T03:53:14.781Z,935.55
2017-07-07T03:53:34.097Z,935.6
2017-07-07T03:53:52.863Z,935.57
2017-07-07T03:54:11.112Z,935.58
2017-07-07T03:54:29.870Z,935.61
2017-07-07T03:54:48.669Z,935.59
2017-07-07T03:55:07.945Z,935.58
2017-07-07T03:55:26.742Z,935.57
2017-07-07T03:55:46.059Z,935.57
2017-07-07T03:56:05.330Z,935.55
2017-07-07T03:56:24.614Z,935.55
2017-07-07T03:56:43.906Z,935.56
2017-07-07T03:57:03.212Z,935.59
2017-07-07T03:57:22.506Z,935.58
2017-07-07T03:57:41.333Z,935.57
2017-07-07T03:58:00.646Z,935.57
2017-07-07T03:58:18.887Z,935.53
2017-07-07T03:58:37.658Z,935.57
2017-07-07T03:58:56.945Z,935.59
2017-07-07T03:59:16.253Z,935.57
2017-07-07T03:59:35.542Z,935.56
2017-07-07T03:59:54.837Z,935.54
2017-07-07T04:00:13.584Z,935.54